createdAt,value
2018-03-24T00:00:32.782Z,33.63
2018-03-24T00:03:01.574Z,36.00
2018-03-24T00:05:30.370Z,33.23
2018-03-24T00:07:59.164Z,34.80
2018-03-24T00:10:27.954Z,34.50
2018-03-24T00:12:56.742Z,34.37
2018-03-24T00:15:25.539Z,34.23
2018-03-24T00:17:54.326Z,35.30
2018-03-24T00:20:23.138Z,33.33
2018-03-24T00:22:51.950Z,32.70
2018-03-24T00:25:20.741Z,34.40
2018-03-24T00:27:49.538Z,36.57
2018-03-24T00:30:18.342Z,33.20
2018-03-24T00:32:47.129Z,33.30
2018-03-24T00:35:15.926Z,34.77
2018-03-24T00:37:44.710Z,32.20
2018-03-24T00:40:13.515Z,30.90
2018-03-24T00:42:42.330Z,30.87
2018-03-24T00:45:11.141Z,31.17
2018-03-24T00:47:39.929Z,28.23
2018-03-24T00:50:08.724Z,30.70
2018-03-24T00:52:37.519Z,29.20
2018-03-24T00:55:06.426Z,30.53
2018-03-24T00:57:35.239Z,30.63
2018-03-24T01:00:04.034Z,29.33
2018-03-24T01:02:32.839Z,29.57
2018-03-24T01:05:01.632Z,30.13
2018-03-24T01:07:30.413Z,28.10
2018-03-24T01:10:00.451Z,26.70
2018-03-24T01:12:29.226Z,29.23
2018-03-24T01:14:58.023Z,27.57
2018-03-24T01:17:26.806Z,28.63
2018-03-24T01:19:55.598Z,30.53
2018-03-24T01:22:24.389Z,34.33
2018-03-24T01:24:53.187Z,31.27
2018-03-24T01:27:21.981Z,32.33
2018-03-24T01:29:50.774Z,29.60
2018-03-24T01:32:19.559Z,30.57
2018-03-24T01:34:48.430Z,31.73
2018-03-24T01:37:17.218Z,30.13
2018-03-24T01:39:46.014Z,29.83
2018-03-24T01:42:14.806Z,29.90
2018-03-24T01:44:43.599Z,28.87
2018-03-24T01:47:12.481Z,28.70
2018-03-24T01:49:41.359Z,30.77
2018-03-24T01:52:10.242Z,31.90
2018-03-24T01:54:39.034Z,32.23
2018-03-24T01:57:07.822Z,36.57
2018-03-24T01:59:36.640Z,32.23
2018-03-24T02:02:05.430Z,29.63
2018-03-24T02:04:34.279Z,28.03
2018-03-24T02:07:03.175Z,28.77
2018-03-24T02:09:31.966Z,27.17
2018-03-24T02:12:00.770Z,28.47
2018-03-24T02:14:29.569Z,30.10
2018-03-24T02:16:58.354Z,28.47
2018-03-24T02:19:27.142Z,30.50
2018-03-24T02:21:55.926Z,29.13
2018-03-24T02:24:24.770Z,30.50
2018-03-24T02:26:53.577Z,30.47
2018-03-24T02:29:22.394Z,29.90
2018-03-24T02:31:51.186Z,30.67
2018-03-24T02:34:19.983Z,29.33
2018-03-24T02:36:48.770Z,28.07
2018-03-24T02:39:17.568Z,28.40
2018-03-24T02:41:46.362Z,29.93
2018-03-24T02:44:15.173Z,29.80
2018-03-24T02:46:43.962Z,30.00
2018-03-24T02:49:12.778Z,27.73
2018-03-24T02:51:41.586Z,26.97
2018-03-24T02:54:10.414Z,28.57
2018-03-24T02:56:39.211Z,29.90
2018-03-24T02:59:08.100Z,31.33
2018-03-24T03:01:36.907Z,31.37
2018-03-24T03:04:05.774Z,32.90
2018-03-24T03:06:34.559Z,34.20
2018-03-24T03:09:03.354Z,31.40
2018-03-24T03:11:32.146Z,31.43
2018-03-24T03:14:01.037Z,32.97
2018-03-24T03:16:29.842Z,29.93
2018-03-24T03:18:58.659Z,29.40
2018-03-24T03:21:42.345Z,29.53
2018-03-24T03:24:11.223Z,28.17
2018-03-24T03:26:40.111Z,28.93
2018-03-24T03:29:08.901Z,27.83
2018-03-24T03:31:37.691Z,28.63
2018-03-24T03:34:06.501Z,28.33
2018-03-24T03:36:35.359Z,27.30
2018-03-24T03:39:04.161Z,29.20
2018-03-24T03:41:33.028Z,25.73
2018-03-24T03:44:01.832Z,27.23
2018-03-24T03:46:30.626Z,27.43
2018-03-24T03:48:59.442Z,27.53
2018-03-24T03:51:28.247Z,25.70
2018-03-24T03:53:57.067Z,25.10
2018-03-24T03:56:25.858Z,26.17
2018-03-24T03:58:54.654Z,27.23
2018-03-24T04:01:23.449Z,25.90
2018-03-24T04:03:52.331Z,25.90
2018-03-24T04:06:21.199Z,26.73
2018-03-24T04:08:49.982Z,26.50
2018-03-24T04:11:18.907Z,28.80
2018-03-24T04:13:47.717Z,28.80
2018-03-24T04:16:16.518Z,30.70
2018-03-24T04:18:45.343Z,29.57
2018-03-24T04:21:14.137Z,28.73
2018-03-24T04:23:43.030Z,28.77
2018-03-24T04:26:11.906Z,27.73
2018-03-24T04:28:40.798Z,27.43
2018-03-24T04:31:09.627Z,24.77
2018-03-24T04:33:38.470Z,27.60
2018-03-24T04:36:07.358Z,28.47
2018-03-24T04:38:36.265Z,24.70
2018-03-24T04:41:05.134Z,26.27
2018-03-24T04:43:33.935Z,25.40
2018-03-24T04:46:02.726Z,26.63
2018-03-24T04:48:31.514Z,26.40
2018-03-24T04:51:00.412Z,26.07
2018-03-24T04:53:29.217Z,26.00
2018-03-24T04:55:58.023Z,27.10
2018-03-24T04:58:26.810Z,28.63
2018-03-24T05:00:55.630Z,25.73
2018-03-24T05:03:24.538Z,26.05
2018-03-24T05:05:53.350Z,24.87
2018-03-24T05:08:22.155Z,27.92
2018-03-24T05:10:50.985Z,25.83
2018-03-24T05:13:19.883Z,26.63
2018-03-24T05:15:48.690Z,25.27
2018-03-24T05:18:17.551Z,25.53
2018-03-24T05:20:46.350Z,24.43
2018-03-24T05:23:15.231Z,24.47
2018-03-24T05:25:44.026Z,25.47
2018-03-24T05:28:12.814Z,26.97
2018-03-24T05:30:41.686Z,25.67
2018-03-24T05:33:10.491Z,26.37
2018-03-24T05:35:39.361Z,24.20
2018-03-24T05:38:08.154Z,26.20
2018-03-24T05:40:37.041Z,24.27
2018-03-24T05:43:05.926Z,24.23
2018-03-24T05:45:34.829Z,26.17
2018-03-24T05:48:03.623Z,23.80
2018-03-24T05:50:32.486Z,26.37
2018-03-24T05:53:01.281Z,24.83
2018-03-24T05:55:30.084Z,25.63
2018-03-24T05:57:58.866Z,23.93
2018-03-24T06:00:27.690Z,23.03
2018-03-24T06:02:56.496Z,22.43
2018-03-24T06:05:25.310Z,21.63
2018-03-24T06:07:54.102Z,22.27
2018-03-24T06:10:22.919Z,22.58
2018-03-24T06:12:51.803Z,22.40
2018-03-24T06:15:20.686Z,21.50
2018-03-24T06:17:49.555Z,21.80
2018-03-24T06:20:18.358Z,21.70
2018-03-24T06:22:47.246Z,23.08
2018-03-24T06:25:16.066Z,21.30
2018-03-24T06:27:44.902Z,22.20
2018-03-24T06:30:15.494Z,22.02
2018-03-24T06:32:44.301Z,22.48
2018-03-24T06:35:13.098Z,21.50
2018-03-24T06:37:41.954Z,21.77
2018-03-24T06:40:10.755Z,23.02
2018-03-24T06:42:39.559Z,23.13
2018-03-24T06:45:08.354Z,23.55
2018-03-24T06:47:37.159Z,23.80
2018-03-24T06:50:05.950Z,22.40
2018-03-24T06:52:34.749Z,24.98
2018-03-24T06:55:03.598Z,28.73
2018-03-24T06:57:32.495Z,30.20
2018-03-24T07:00:01.388Z,33.53
2018-03-24T07:02:30.173Z,33.00
2018-03-24T07:04:59.058Z,30.07
2018-03-24T07:07:27.850Z,32.53
2018-03-24T07:09:56.730Z,29.70
2018-03-24T07:12:25.530Z,30.13
2018-03-24T07:14:54.318Z,38.77
2018-03-24T07:17:23.199Z,34.80
2018-03-24T07:19:52.087Z,34.90
2018-03-24T07:22:20.882Z,34.00
2018-03-24T07:24:49.675Z,35.70
2018-03-24T07:27:18.471Z,33.60
2018-03-24T07:29:47.264Z,37.77
2018-03-24T07:32:16.053Z,35.23
2018-03-24T07:34:44.838Z,33.37
2018-03-24T07:37:13.638Z,34.33
2018-03-24T07:39:42.425Z,33.37
2018-03-24T07:42:11.221Z,34.13
2018-03-24T07:44:40.014Z,32.23
2018-03-24T07:47:08.806Z,34.20
2018-03-24T07:49:37.599Z,32.03
2018-03-24T07:52:06.394Z,31.10
2018-03-24T07:54:35.182Z,31.47
2018-03-24T07:57:03.978Z,31.13
2018-03-24T07:59:32.770Z,31.70
2018-03-24T08:02:01.558Z,31.77
2018-03-24T08:04:30.346Z,33.37
2018-03-24T08:06:59.144Z,32.80
2018-03-24T08:09:27.947Z,31.17
2018-03-24T08:11:56.751Z,31.80
2018-03-24T08:14:25.539Z,32.63
2018-03-24T08:16:54.597Z,31.93
2018-03-24T08:19:23.531Z,33.10
2018-03-24T08:21:52.330Z,33.90
2018-03-24T08:24:21.119Z,33.07
2018-03-24T08:26:49.915Z,34.27
2018-03-24T08:29:18.699Z,31.10
2018-03-24T08:31:47.498Z,32.00
2018-03-24T08:34:16.295Z,29.50
2018-03-24T08:36:45.091Z,31.60
2018-03-24T08:39:13.879Z,31.23
2018-03-24T08:41:42.671Z,31.53
2018-03-24T08:44:11.463Z,30.57
2018-03-24T08:46:40.329Z,29.10
2018-03-24T08:49:09.222Z,30.00
2018-03-24T08:51:38.599Z,28.57
2018-03-24T08:54:07.899Z,29.87
2018-03-24T08:56:36.698Z,27.43
2018-03-24T08:59:05.487Z,26.97
2018-03-24T09:01:34.290Z,26.43
2018-03-24T09:04:03.175Z,25.77
2018-03-24T09:06:31.972Z,28.17
2018-03-24T09:09:00.758Z,27.50
2018-03-24T09:11:29.626Z,27.03
2018-03-24T09:13:58.418Z,28.67
2018-03-24T09:16:27.311Z,27.77
2018-03-24T09:18:56.190Z,30.27
2018-03-24T09:21:24.986Z,29.30
2018-03-24T09:23:53.774Z,27.80
2018-03-24T09:26:22.579Z,29.10
2018-03-24T09:28:51.442Z,27.47
2018-03-24T09:31:20.330Z,26.57
2018-03-24T09:33:49.118Z,26.23
2018-03-24T09:36:17.911Z,25.77
2018-03-24T09:38:46.693Z,28.70
2018-03-24T09:41:15.494Z,28.57
2018-03-24T09:43:44.295Z,25.77
2018-03-24T09:46:13.086Z,27.93
2018-03-24T09:48:41.954Z,26.40
2018-03-24T09:51:10.754Z,26.50
2018-03-24T09:53:39.538Z,27.17
2018-03-24T09:56:08.345Z,27.37
2018-03-24T09:58:37.131Z,24.47
2018-03-24T10:01:05.925Z,23.73
2018-03-24T10:03:34.714Z,21.03
2018-03-24T10:06:03.519Z,23.30
2018-03-24T10:08:32.307Z,20.70
2018-03-24T10:11:01.184Z,21.47
2018-03-24T10:13:29.950Z,17.07
2018-03-24T10:15:58.737Z,19.83
2018-03-24T10:18:27.586Z,17.57
2018-03-24T10:21:11.265Z,14.90
2018-03-24T10:23:40.662Z,17.67
2018-03-24T10:26:09.450Z,20.57
2018-03-24T10:28:38.257Z,20.30
2018-03-24T10:31:07.048Z,18.50
2018-03-24T10:33:41.575Z,19.20
2018-03-24T10:36:10.362Z,16.30
2018-03-24T10:38:39.172Z,14.13
2018-03-24T10:41:07.951Z,13.03
2018-03-24T10:43:38.698Z,13.93
2018-03-24T10:46:07.483Z,14.70
2018-03-24T10:48:36.287Z,13.73
2018-03-24T10:54:32.848Z,19.67
2018-03-24T10:57:06.820Z,18.13
2018-03-24T10:59:35.119Z,18.80
2018-03-24T11:02:02.628Z,17.47
2018-03-24T11:04:30.221Z,19.00
2018-03-24T11:06:57.704Z,16.53
2018-03-24T11:09:25.266Z,18.50
2018-03-24T11:11:53.075Z,19.03
2018-03-24T11:14:20.620Z,21.77
2018-03-24T11:16:59.924Z,19.03
2018-03-24T11:22:27.925Z,18.07
2018-03-24T11:41:46.145Z,17.27
2018-03-24T11:44:14.350Z,14.77
2018-03-24T11:46:42.542Z,14.50
2018-03-24T11:49:09.998Z,16.97
2018-03-24T11:51:37.437Z,12.83
2018-03-24T11:54:04.927Z,11.17
2018-03-24T11:56:32.361Z,14.80
2018-03-24T11:58:59.818Z,18.80
2018-03-24T12:01:31.070Z,12.17
2018-03-24T12:04:18.088Z,9.83
2018-03-24T12:06:45.547Z,13.90
2018-03-24T12:09:13.024Z,8.80
2018-03-24T12:11:40.619Z,10.73
2018-03-24T12:14:08.056Z,12.10
2018-03-24T12:16:36.247Z,16.07
2018-03-24T12:19:04.468Z,16.40
2018-03-24T12:21:31.916Z,18.00
2018-03-24T12:24:12.771Z,18.77
2018-03-24T12:26:40.991Z,17.97
2018-03-24T12:29:08.449Z,17.63
2018-03-24T12:31:53.994Z,17.93
2018-03-24T12:34:21.430Z,17.53
2018-03-24T12:36:49.824Z,17.80
2018-03-24T12:39:18.061Z,16.90
2018-03-24T12:41:45.504Z,16.43
2018-03-24T12:44:12.959Z,17.70
2018-03-24T12:46:40.427Z,17.73
2018-03-24T12:49:07.895Z,16.33
2018-03-24T12:51:35.352Z,15.87
2018-03-24T12:54:02.805Z,16.63
2018-03-24T12:56:30.257Z,16.53
2018-03-24T12:58:57.775Z,16.23
2018-03-24T13:01:25.230Z,15.20
2018-03-24T13:03:52.867Z,15.27
2018-03-24T13:06:33.392Z,14.90
2018-03-24T13:09:00.836Z,15.30
2018-03-24T13:14:24.743Z,14.17
2018-03-24T13:16:57.972Z,14.70
2018-03-24T13:19:26.198Z,15.00
2018-03-24T13:21:53.640Z,14.87
2018-03-24T13:24:21.105Z,15.67
2018-03-24T13:26:49.239Z,15.47
2018-03-24T13:29:17.473Z,14.37
2018-03-24T13:31:44.934Z,15.07
2018-03-24T13:34:12.387Z,14.00
2018-03-24T13:36:39.870Z,13.33
2018-03-24T13:39:07.336Z,12.90
2018-03-24T13:41:34.802Z,13.57
2018-03-24T13:44:03.027Z,13.17
2018-03-24T13:46:30.487Z,14.40
2018-03-24T13:48:57.938Z,14.73
2018-03-24T13:51:26.209Z,14.10
2018-03-24T13:53:53.653Z,14.90
2018-03-24T13:56:21.107Z,13.57
2018-03-24T13:58:53.019Z,13.93
2018-03-24T14:01:20.535Z,13.80
2018-03-24T14:03:47.990Z,15.67
2018-03-24T14:06:15.431Z,13.33
2018-03-24T14:08:43.657Z,14.70
2018-03-24T14:11:11.155Z,14.10
2018-03-24T14:13:38.686Z,13.70
2018-03-24T14:16:27.046Z,13.40
2018-03-24T14:18:54.501Z,13.93
2018-03-24T14:21:21.961Z,14.57
2018-03-24T14:23:50.341Z,13.73
2018-03-24T14:26:17.889Z,13.97
2018-03-24T14:28:45.340Z,12.73
2018-03-24T14:31:12.797Z,14.80
2018-03-24T14:33:41.201Z,14.50
2018-03-24T14:36:08.649Z,12.00
2018-03-24T14:38:49.851Z,13.17
2018-03-24T14:41:18.076Z,13.17
2018-03-24T14:43:45.544Z,13.20
2018-03-24T14:46:12.988Z,12.43
2018-03-24T14:48:40.509Z,12.03
2018-03-24T14:51:08.723Z,12.50
2018-03-24T14:53:36.284Z,13.07
2018-03-24T14:56:03.723Z,12.70
2018-03-24T14:58:32.822Z,12.37
2018-03-24T15:01:00.362Z,11.90
2018-03-24T15:03:28.587Z,12.03
2018-03-24T15:05:56.030Z,13.23
2018-03-24T15:08:23.485Z,12.40
2018-03-24T15:10:51.048Z,13.07
2018-03-24T15:13:18.500Z,13.33
2018-03-24T15:15:47.547Z,12.80
2018-03-24T15:18:19.910Z,13.00
2018-03-24T15:20:48.202Z,12.70
2018-03-24T15:23:17.921Z,13.17
2018-03-24T15:25:47.162Z,12.77
2018-03-24T15:28:19.278Z,13.43
2018-03-24T15:31:04.096Z,14.13
2018-03-24T15:36:37.755Z,13.20
2018-03-24T15:39:07.653Z,13.67
2018-03-24T15:41:35.108Z,14.73
2018-03-24T15:44:02.561Z,13.77
2018-03-24T15:46:30.003Z,12.67
2018-03-24T15:48:57.534Z,12.37
2018-03-24T15:51:25.744Z,12.50
2018-03-24T15:53:53.194Z,11.87
2018-03-24T15:56:20.647Z,13.07
2018-03-24T15:58:48.109Z,11.83
2018-03-24T16:13:03.252Z,11.93
2018-03-24T16:15:36.296Z,12.40
2018-03-24T16:18:05.085Z,11.97
2018-03-24T16:20:40.755Z,11.97
2018-03-24T16:23:16.509Z,11.97
2018-03-24T16:25:45.672Z,10.93
2018-03-24T16:31:05.177Z,9.40
2018-03-24T16:36:27.495Z,11.93
2018-03-24T16:39:07.536Z,11.03
2018-03-24T16:41:35.895Z,12.37
2018-03-24T16:47:10.745Z,11.93
2018-03-24T16:49:39.029Z,13.17
2018-03-24T16:52:07.214Z,11.73
2018-03-24T16:54:38.230Z,12.43
2018-03-24T16:57:05.824Z,11.70
2018-03-24T16:59:33.283Z,11.47
2018-03-24T17:02:00.777Z,11.10
2018-03-24T17:04:28.216Z,12.07
2018-03-24T17:06:55.671Z,13.37
2018-03-24T17:09:23.121Z,12.63
2018-03-24T17:11:50.565Z,12.60
2018-03-24T17:14:18.105Z,11.80
2018-03-24T17:16:46.313Z,12.13
2018-03-24T17:19:13.781Z,12.03
2018-03-24T17:21:41.241Z,11.93
2018-03-24T17:24:08.686Z,13.27
2018-03-24T17:26:36.133Z,12.63
2018-03-24T17:29:19.257Z,11.37
2018-03-24T17:31:46.706Z,11.90
2018-03-24T17:34:14.147Z,11.00
2018-03-24T17:36:41.601Z,11.40
2018-03-24T17:39:09.813Z,10.57
2018-03-24T17:41:37.275Z,11.77
2018-03-24T17:44:04.724Z,10.47
2018-03-24T17:46:32.184Z,10.37
2018-03-24T17:48:59.636Z,10.90
2018-03-24T17:51:27.090Z,10.93
2018-03-24T17:53:54.529Z,10.10
2018-03-24T17:56:22.756Z,10.73
2018-03-24T17:58:50.197Z,10.17
2018-03-24T18:01:18.458Z,10.20
2018-03-24T18:03:45.963Z,11.20
2018-03-24T18:06:13.437Z,11.07
2018-03-24T18:08:40.878Z,11.10
2018-03-24T18:13:53.721Z,9.83
2018-03-24T18:16:21.176Z,9.93
2018-03-24T18:18:48.627Z,10.60
2018-03-24T18:21:16.104Z,9.80
2018-03-24T18:23:43.548Z,10.63
2018-03-24T18:26:11.003Z,9.87
2018-03-24T18:31:38.602Z,12.10
2018-03-24T18:34:06.061Z,10.93
2018-03-24T18:36:33.508Z,9.93
2018-03-24T18:39:00.957Z,10.47
2018-03-24T18:41:28.437Z,10.50
2018-03-24T18:43:56.645Z,10.63
2018-03-24T18:46:24.148Z,11.10
2018-03-24T18:48:51.596Z,10.60
2018-03-24T18:51:19.112Z,12.70
2018-03-24T18:53:46.646Z,10.03
2018-03-24T18:56:14.886Z,9.90
2018-03-24T18:58:42.447Z,8.77
2018-03-24T19:01:09.926Z,9.30
2018-03-24T19:03:37.403Z,9.20
2018-03-24T19:06:05.658Z,9.10
2018-03-24T19:08:33.105Z,9.43
2018-03-24T19:11:00.675Z,8.67
2018-03-24T19:13:28.160Z,8.83
2018-03-24T19:15:56.466Z,9.70
2018-03-24T19:18:23.947Z,9.70
2018-03-24T19:20:51.403Z,9.63
2018-03-24T19:23:18.977Z,9.57
2018-03-24T19:25:46.432Z,9.43
2018-03-24T19:28:13.903Z,8.77
2018-03-24T19:30:51.345Z,9.60
2018-03-24T19:33:18.862Z,9.30
2018-03-24T19:35:46.746Z,9.13
2018-03-24T19:38:15.005Z,9.00
2018-03-24T19:40:42.641Z,9.67
2018-03-24T19:43:10.104Z,8.73
2018-03-24T19:45:37.573Z,9.97
2018-03-24T19:48:05.027Z,9.43
2018-03-24T19:50:32.471Z,9.17
2018-03-24T19:52:59.980Z,8.87
2018-03-24T19:55:28.276Z,8.73
2018-03-24T19:57:55.735Z,9.60
2018-03-24T20:00:23.180Z,9.00
2018-03-24T20:02:50.661Z,9.07
2018-03-24T20:05:18.167Z,8.80
2018-03-24T20:07:45.632Z,9.83
2018-03-24T20:10:13.088Z,9.37
2018-03-24T20:12:40.563Z,8.30
2018-03-24T20:15:08.855Z,9.57
2018-03-24T20:17:36.307Z,9.70
2018-03-24T20:20:03.772Z,8.93
2018-03-24T20:22:31.253Z,8.20
2018-03-24T20:24:58.711Z,8.88
2018-03-24T20:27:26.185Z,9.07
2018-03-24T20:29:53.648Z,9.45
2018-03-24T20:32:21.145Z,7.90
2018-03-24T20:34:49.368Z,8.50
2018-03-24T20:37:16.856Z,8.63
2018-03-24T20:39:47.429Z,8.70
2018-03-24T20:42:14.893Z,8.63
2018-03-24T20:44:42.360Z,8.65
2018-03-24T20:47:09.854Z,8.60
2018-03-24T20:49:37.381Z,9.65
2018-03-24T20:52:04.863Z,8.77
2018-03-24T20:54:32.369Z,8.68
2018-03-24T20:56:59.829Z,9.30
2018-03-24T20:59:27.381Z,8.30
2018-03-24T21:01:54.852Z,9.63
2018-03-24T21:04:22.321Z,9.57
2018-03-24T21:06:49.839Z,9.77
2018-03-24T21:09:18.063Z,9.07
2018-03-24T21:11:45.576Z,9.25
2018-03-24T21:14:13.803Z,9.02
2018-03-24T21:16:41.324Z,9.30
2018-03-24T21:19:09.548Z,9.40
2018-03-24T21:21:37.063Z,8.77
2018-03-24T21:24:05.290Z,8.98
2018-03-24T21:26:32.739Z,8.95
2018-03-24T21:29:00.192Z,10.07
2018-03-24T21:31:27.644Z,9.27
2018-03-24T21:33:55.102Z,8.73
2018-03-24T21:36:22.603Z,9.07
2018-03-24T21:38:50.092Z,9.48
2018-03-24T21:41:18.297Z,9.38
2018-03-24T21:43:45.815Z,8.65
2018-03-24T21:46:14.024Z,10.13
2018-03-24T21:48:41.481Z,8.63
2018-03-24T21:51:08.943Z,8.93
2018-03-24T21:53:36.405Z,8.68
2018-03-24T21:56:05.475Z,8.95
2018-03-24T21:58:33.779Z,8.38
2018-03-24T22:01:01.233Z,9.43
2018-03-24T22:03:28.705Z,9.15
2018-03-24T22:05:56.167Z,9.13
2018-03-24T22:08:24.655Z,8.73
2018-03-24T22:10:52.126Z,9.00
2018-03-24T22:13:19.640Z,10.23
2018-03-24T22:15:47.110Z,8.88
2018-03-24T22:18:14.574Z,9.70
2018-03-24T22:20:42.069Z,10.93
2018-03-24T22:23:09.564Z,8.88
2018-03-24T22:25:37.990Z,9.98
2018-03-24T22:28:05.539Z,9.73
2018-03-24T22:30:32.994Z,10.00
2018-03-24T22:33:00.456Z,10.05
2018-03-24T22:35:27.924Z,9.77
2018-03-24T22:37:55.404Z,8.88
2018-03-24T22:40:23.623Z,9.35
2018-03-24T22:42:51.153Z,9.18
2018-03-24T22:45:19.416Z,9.75
2018-03-24T22:47:46.880Z,9.95
2018-03-24T22:50:15.117Z,9.52
2018-03-24T22:52:43.973Z,10.48
2018-03-24T22:57:45.540Z,11.82
2018-03-24T23:00:12.997Z,11.90
2018-03-24T23:02:40.491Z,13.90
2018-03-24T23:05:07.945Z,13.07
2018-03-24T23:07:35.396Z,12.80
2018-03-24T23:10:03.201Z,13.32
2018-03-24T23:12:30.645Z,13.27
2018-03-24T23:14:58.097Z,12.82
2018-03-24T23:17:25.545Z,12.82
2018-03-24T23:22:31.778Z,11.82
2018-03-24T23:24:59.241Z,12.00
2018-03-24T23:27:26.706Z,12.37
2018-03-24T23:29:54.159Z,12.93
2018-03-24T23:32:21.651Z,12.57
2018-03-24T23:34:49.123Z,13.73
2018-03-24T23:37:16.570Z,14.73
2018-03-24T23:39:44.053Z,13.25
2018-03-24T23:42:11.552Z,14.75
2018-03-24T23:44:38.951Z,14.85
2018-03-24T23:47:06.407Z,13.07
2018-03-24T23:49:33.867Z,13.50
2018-03-24T23:52:01.330Z,13.68
2018-03-24T23:54:28.772Z,13.23
2018-03-24T23:56:56.240Z,13.88
2018-03-24T23:59:42.756Z,15.18
